sensor_id;sensor_type;location;lat;lon;timestamp;temperature;humidity
12374;DHT22;6251;51.762;8.660;2023-09-19T01:05:18;15.10;99.90
12374;DHT22;6251;51.762;8.660;2023-09-19T02:49:50;14.60;99.90
12374;DHT22;6251;51.762;8.660;2023-09-19T02:59:51;14.60;99.90
12374;DHT22;6251;51.762;8.660;2023-09-19T04:00:44;14.30;99.90
12374;DHT22;6251;51.762;8.660;2023-09-19T04:10:44;14.10;99.90
12374;DHT22;6251;51.762;8.660;2023-09-19T04:20:49;14.00;99.90
12374;DHT22;6251;51.762;8.660;2023-09-19T04:30:50;13.90;99.90
12374;DHT22;6251;51.762;8.660;2023-09-19T04:40:57;13.80;99.90
12374;DHT22;6251;51.762;8.660;2023-09-19T04:50:59;13.70;99.90
12374;DHT22;6251;51.762;8.660;2023-09-19T05:01:00;13.50;99.90
12374;DHT22;6251;51.762;8.660;2023-09-19T05:11:03;13.40;99.90
12374;DHT22;6251;51.762;8.660;2023-09-19T05:21:04;13.30;99.90
12374;DHT22;6251;51.762;8.660;2023-09-19T05:31:04;13.20;99.90
12374;DHT22;6251;51.762;8.660;2023-09-19T05:41:05;13.20;99.90
12374;DHT22;6251;51.762;8.660;2023-09-19T05:51:07;13.20;99.90
12374;DHT22;6251;51.762;8.660;2023-09-19T06:01:07;13.20;99.90
12374;DHT22;6251;51.762;8.660;2023-09-19T06:11:09;13.20;99.90
12374;DHT22;6251;51.762;8.660;2023-09-19T06:21:09;13.20;99.90
12374;DHT22;6251;51.762;8.660;2023-09-19T06:31:10;13.30;99.90
12374;DHT22;6251;51.762;8.660;2023-09-19T06:41:11;13.50;99.90
12374;DHT22;6251;51.762;8.660;2023-09-19T06:51:12;13.70;99.90
12374;DHT22;6251;51.762;8.660;2023-09-19T07:01:15;13.90;99.90
12374;DHT22;6251;51.762;8.660;2023-09-19T07:11:16;14.10;99.90
12374;DHT22;6251;51.762;8.660;2023-09-19T07:21:17;14.30;99.90
12374;DHT22;6251;51.762;8.660;2023-09-19T07:31:17;14.40;99.90
12374;DHT22;6251;51.762;8.660;2023-09-19T07:41:18;14.50;99.90
12374;DHT22;6251;51.762;8.660;2023-09-19T07:51:18;14.60;99.90
12374;DHT22;6251;51.762;8.660;2023-09-19T08:01:19;15.00;99.90
12374;DHT22;6251;51.762;8.660;2023-09-19T08:11:20;15.20;99.90
12374;DHT22;6251;51.762;8.660;2023-09-19T08:21:22;15.40;99.90
12374;DHT22;6251;51.762;8.660;2023-09-19T08:31:24;15.80;99.90
12374;DHT22;6251;51.762;8.660;2023-09-19T08:41:26;15.90;99.90
12374;DHT22;6251;51.762;8.660;2023-09-19T08:51:38;16.10;99.90
12374;DHT22;6251;51.762;8.660;2023-09-19T09:01:40;16.30;99.90
12374;DHT22;6251;51.762;8.660;2023-09-19T09:11:41;16.50;99.90
12374;DHT22;6251;51.762;8.660;2023-09-19T09:21:42;16.60;99.90
12374;DHT22;6251;51.762;8.660;2023-09-19T09:31:43;16.80;99.90
12374;DHT22;6251;51.762;8.660;2023-09-19T09:41:44;17.00;99.90
12374;DHT22;6251;51.762;8.660;2023-09-19T09:51:49;17.10;99.90
12374;DHT22;6251;51.762;8.660;2023-09-19T10:02:01;17.10;99.90
12374;DHT22;6251;51.762;8.660;2023-09-19T10:12:05;17.20;99.90
12374;DHT22;6251;51.762;8.660;2023-09-19T10:22:08;17.40;99.90
12374;DHT22;6251;51.762;8.660;2023-09-19T10:32:13;17.60;99.90
12374;DHT22;6251;51.762;8.660;2023-09-19T10:42:23;17.70;99.90
12374;DHT22;6251;51.762;8.660;2023-09-19T10:52:29;17.80;99.90
12374;DHT22;6251;51.762;8.660;2023-09-19T11:02:33;17.90;99.90
12374;DHT22;6251;51.762;8.660;2023-09-19T11:43:29;19.00;99.90
12374;DHT22;6251;51.762;8.660;2023-09-19T11:53:31;19.10;99.90
12374;DHT22;6251;51.762;8.660;2023-09-19T12:03:37;19.10;99.90
12374;DHT22;6251;51.762;8.660;2023-09-19T12:13:45;19.20;99.90
12374;DHT22;6251;51.762;8.660;2023-09-19T12:23:57;19.70;99.90
12374;DHT22;6251;51.762;8.660;2023-09-19T12:33:58;19.80;99.90
12374;DHT22;6251;51.762;8.660;2023-09-19T12:44:02;19.80;99.90
12374;DHT22;6251;51.762;8.660;2023-09-19T12:54:06;19.90;99.90
12374;DHT22;6251;51.762;8.660;2023-09-19T13:14:27;20.20;99.90
12374;DHT22;6251;51.762;8.660;2023-09-19T13:24:28;20.30;99.90
12374;DHT22;6251;51.762;8.660;2023-09-19T13:34:30;20.40;99.90
12374;DHT22;6251;51.762;8.660;2023-09-19T13:44:32;20.60;99.90
12374;DHT22;6251;51.762;8.660;2023-09-19T13:54:32;20.30;99.90
12374;DHT22;6251;51.762;8.660;2023-09-19T14:04:33;20.40;99.90
12374;DHT22;6251;51.762;8.660;2023-09-19T14:14:34;20.60;99.90
12374;DHT22;6251;51.762;8.660;2023-09-19T14:24:35;20.40;99.90
12374;DHT22;6251;51.762;8.660;2023-09-19T14:34:36;20.60;99.90
12374;DHT22;6251;51.762;8.660;2023-09-19T14:44:42;20.80;99.90
12374;DHT22;6251;51.762;8.660;2023-09-19T14:54:42;20.50;99.90
12374;DHT22;6251;51.762;8.660;2023-09-19T15:04:43;20.40;99.90
12374;DHT22;6251;51.762;8.660;2023-09-19T15:14:45;20.30;99.90
12374;DHT22;6251;51.762;8.660;2023-09-19T15:24:45;20.10;99.90
12374;DHT22;6251;51.762;8.660;2023-09-19T15:34:47;20.00;99.90
12374;DHT22;6251;51.762;8.660;2023-09-19T15:44:48;19.70;99.90
12374;DHT22;6251;51.762;8.660;2023-09-19T15:54:50;19.50;99.90
12374;DHT22;6251;51.762;8.660;2023-09-19T16:04:54;19.40;99.90
12374;DHT22;6251;51.762;8.660;2023-09-19T16:14:56;19.20;99.90
12374;DHT22;6251;51.762;8.660;2023-09-19T16:24:56;19.10;99.90
12374;DHT22;6251;51.762;8.660;2023-09-19T16:34:57;19.10;99.90
12374;DHT22;6251;51.762;8.660;2023-09-19T16:44:57;19.00;99.90
12374;DHT22;6251;51.762;8.660;2023-09-19T16:54:58;18.80;99.90
12374;DHT22;6251;51.762;8.660;2023-09-19T17:04:59;18.60;99.90
12374;DHT22;6251;51.762;8.660;2023-09-19T17:14:59;18.30;99.90
12374;DHT22;6251;51.762;8.660;2023-09-19T17:25:00;18.00;99.90
12374;DHT22;6251;51.762;8.660;2023-09-19T17:35:03;17.80;99.90
12374;DHT22;6251;51.762;8.660;2023-09-19T17:45:04;17.60;99.90
12374;DHT22;6251;51.762;8.660;2023-09-19T17:55:06;17.30;99.90
12374;DHT22;6251;51.762;8.660;2023-09-19T18:05:07;17.10;99.90
12374;DHT22;6251;51.762;8.660;2023-09-19T18:15:08;16.90;99.90
12374;DHT22;6251;51.762;8.660;2023-09-19T18:25:09;16.70;99.90
12374;DHT22;6251;51.762;8.660;2023-09-19T18:35:11;16.70;99.90
12374;DHT22;6251;51.762;8.660;2023-09-19T18:45:15;16.50;99.90
12374;DHT22;6251;51.762;8.660;2023-09-19T18:55:16;16.40;99.90
12374;DHT22;6251;51.762;8.660;2023-09-19T19:05:18;16.40;99.90
12374;DHT22;6251;51.762;8.660;2023-09-19T19:15:18;16.40;99.90
12374;DHT22;6251;51.762;8.660;2023-09-19T19:25:19;16.50;99.90
12374;DHT22;6251;51.762;8.660;2023-09-19T19:35:21;16.50;99.90
12374;DHT22;6251;51.762;8.660;2023-09-19T19:45:24;16.60;99.90
12374;DHT22;6251;51.762;8.660;2023-09-19T19:55:25;16.60;99.90
12374;DHT22;6251;51.762;8.660;2023-09-19T20:05:27;16.60;99.90
12374;DHT22;6251;51.762;8.660;2023-09-19T20:15:28;16.70;99.90
12374;DHT22;6251;51.762;8.660;2023-09-19T20:25:30;16.70;99.90
12374;DHT22;6251;51.762;8.660;2023-09-19T20:35:38;16.60;99.90
12374;DHT22;6251;51.762;8.660;2023-09-19T20:45:39;16.40;99.90
12374;DHT22;6251;51.762;8.660;2023-09-19T20:55:41;16.40;99.90
12374;DHT22;6251;51.762;8.660;2023-09-19T23:07:59;16.70;99.90
